sensor_id;sensor_type;location;lat;lon;timestamp;P1;durP1;ratioP1;P2;durP2;ratioP2
56043;SDS011;41912;51.022;3.664;2022-09-29T00:00:46;13.95;;;6.80;;
56043;SDS011;41912;51.022;3.664;2022-09-29T00:03:13;12.57;;;5.78;;
56043;SDS011;41912;51.022;3.664;2022-09-29T00:05:38;10.75;;;5.78;;
56043;SDS011;41912;51.022;3.664;2022-09-29T00:08:10;17.77;;;5.95;;
56043;SDS011;41912;51.022;3.664;2022-09-29T00:10:38;12.40;;;6.95;;
56043;SDS011;41912;51.022;3.664;2022-09-29T00:13:05;10.75;;;6.53;;
56043;SDS011;41912;51.022;3.664;2022-09-29T00:15:30;12.25;;;5.85;;
56043;SDS011;41912;51.022;3.664;2022-09-29T00:17:56;9.13;;;5.90;;
56043;SDS011;41912;51.022;3.664;2022-09-29T00:20:21;13.18;;;6.68;;
56043;SDS011;41912;51.022;3.664;2022-09-29T00:22:48;14.70;;;6.10;;
56043;SDS011;41912;51.022;3.664;2022-09-29T00:25:15;8.82;;;6.28;;
56043;SDS011;41912;51.022;3.664;2022-09-29T00:27:41;11.10;;;6.60;;
56043;SDS011;41912;51.022;3.664;2022-09-29T00:30:06;10.93;;;5.97;;
56043;SDS011;41912;51.022;3.664;2022-09-29T00:32:32;12.40;;;6.10;;
56043;SDS011;41912;51.022;3.664;2022-09-29T00:34:58;9.35;;;6.25;;
56043;SDS011;41912;51.022;3.664;2022-09-29T00:37:24;13.70;;;6.07;;
56043;SDS011;41912;51.022;3.664;2022-09-29T00:39:50;12.73;;;6.25;;
56043;SDS011;41912;51.022;3.664;2022-09-29T00:42:19;10.00;;;6.50;;
56043;SDS011;41912;51.022;3.664;2022-09-29T00:45:01;11.05;;;6.60;;
56043;SDS011;41912;51.022;3.664;2022-09-29T00:47:43;9.35;;;5.85;;
56043;SDS011;41912;51.022;3.664;2022-09-29T00:50:22;20.33;;;8.10;;
56043;SDS011;41912;51.022;3.664;2022-09-29T00:52:56;12.82;;;6.82;;
56043;SDS011;41912;51.022;3.664;2022-09-29T00:55:27;16.10;;;7.57;;
56043;SDS011;41912;51.022;3.664;2022-09-29T01:00:32;10.98;;;6.55;;
56043;SDS011;41912;51.022;3.664;2022-09-29T01:02:59;11.43;;;6.47;;
56043;SDS011;41912;51.022;3.664;2022-09-29T01:05:29;10.93;;;6.68;;
56043;SDS011;41912;51.022;3.664;2022-09-29T01:08:07;9.68;;;6.30;;
56043;SDS011;41912;51.022;3.664;2022-09-29T01:10:47;15.82;;;6.78;;
56043;SDS011;41912;51.022;3.664;2022-09-29T01:13:14;16.13;;;7.80;;
56043;SDS011;41912;51.022;3.664;2022-09-29T01:15:41;10.18;;;6.68;;
56043;SDS011;41912;51.022;3.664;2022-09-29T01:18:07;14.77;;;7.10;;
56043;SDS011;41912;51.022;3.664;2022-09-29T01:20:34;13.40;;;6.45;;
56043;SDS011;41912;51.022;3.664;2022-09-29T01:23:48;17.23;;;6.57;;
56043;SDS011;41912;51.022;3.664;2022-09-29T01:31:49;16.08;;;6.40;;
56043;SDS011;41912;51.022;3.664;2022-09-29T01:34:28;10.75;;;6.25;;
56043;SDS011;41912;51.022;3.664;2022-09-29T01:39:53;14.75;;;8.02;;
56043;SDS011;41912;51.022;3.664;2022-09-29T01:42:28;12.68;;;6.95;;
56043;SDS011;41912;51.022;3.664;2022-09-29T01:45:14;12.35;;;7.93;;
56043;SDS011;41912;51.022;3.664;2022-09-29T01:47:49;18.83;;;8.02;;
56043;SDS011;41912;51.022;3.664;2022-09-29T01:50:20;11.60;;;7.43;;
56043;SDS011;41912;51.022;3.664;2022-09-29T01:52:53;12.43;;;6.60;;
56043;SDS011;41912;51.022;3.664;2022-09-29T01:55:24;14.35;;;8.13;;
56043;SDS011;41912;51.022;3.664;2022-09-29T01:58:01;10.43;;;6.15;;
56043;SDS011;41912;51.022;3.664;2022-09-29T02:00:37;11.75;;;6.53;;
56043;SDS011;41912;51.022;3.664;2022-09-29T02:03:08;13.80;;;6.45;;
56043;SDS011;41912;51.022;3.664;2022-09-29T02:11:13;10.48;;;6.57;;
56043;SDS011;41912;51.022;3.664;2022-09-29T02:13:49;13.13;;;6.45;;
56043;SDS011;41912;51.022;3.664;2022-09-29T02:16:28;11.82;;;6.93;;
56043;SDS011;41912;51.022;3.664;2022-09-29T02:19:14;11.63;;;6.57;;
56043;SDS011;41912;51.022;3.664;2022-09-29T02:21:42;11.35;;;6.60;;
56043;SDS011;41912;51.022;3.664;2022-09-29T02:24:09;12.68;;;7.13;;
56043;SDS011;41912;51.022;3.664;2022-09-29T02:26:35;14.48;;;6.38;;
56043;SDS011;41912;51.022;3.664;2022-09-29T02:29:02;12.98;;;6.93;;
56043;SDS011;41912;51.022;3.664;2022-09-29T02:31:29;16.75;;;7.10;;
56043;SDS011;41912;51.022;3.664;2022-09-29T02:33:56;10.93;;;6.68;;
56043;SDS011;41912;51.022;3.664;2022-09-29T02:39:25;23.80;;;7.28;;
56043;SDS011;41912;51.022;3.664;2022-09-29T02:42:03;10.73;;;7.60;;
56043;SDS011;41912;51.022;3.664;2022-09-29T02:53:31;14.73;;;7.30;;
56043;SDS011;41912;51.022;3.664;2022-09-29T02:58:41;9.82;;;6.53;;
56043;SDS011;41912;51.022;3.664;2022-09-29T03:01:13;11.57;;;6.13;;
56043;SDS011;41912;51.022;3.664;2022-09-29T03:03:40;10.93;;;6.40;;
56043;SDS011;41912;51.022;3.664;2022-09-29T03:06:06;11.90;;;6.65;;
56043;SDS011;41912;51.022;3.664;2022-09-29T03:08:33;19.23;;;6.43;;
56043;SDS011;41912;51.022;3.664;2022-09-29T03:10:59;21.27;;;7.28;;
56043;SDS011;41912;51.022;3.664;2022-09-29T03:13:24;15.23;;;6.72;;
56043;SDS011;41912;51.022;3.664;2022-09-29T03:15:50;11.77;;;6.70;;
56043;SDS011;41912;51.022;3.664;2022-09-29T03:18:16;13.32;;;7.60;;
56043;SDS011;41912;51.022;3.664;2022-09-29T03:20:41;11.38;;;6.78;;
56043;SDS011;41912;51.022;3.664;2022-09-29T03:23:07;16.35;;;7.10;;
56043;SDS011;41912;51.022;3.664;2022-09-29T03:25:32;9.77;;;6.03;;
56043;SDS011;41912;51.022;3.664;2022-09-29T03:27:58;18.42;;;6.90;;
56043;SDS011;41912;51.022;3.664;2022-09-29T03:30:24;9.63;;;5.68;;
56043;SDS011;41912;51.022;3.664;2022-09-29T03:32:49;10.70;;;6.50;;
56043;SDS011;41912;51.022;3.664;2022-09-29T03:35:16;10.88;;;6.53;;
56043;SDS011;41912;51.022;3.664;2022-09-29T03:37:41;11.30;;;6.50;;
56043;SDS011;41912;51.022;3.664;2022-09-29T03:40:07;17.42;;;7.18;;
56043;SDS011;41912;51.022;3.664;2022-09-29T03:42:33;9.20;;;6.25;;
56043;SDS011;41912;51.022;3.664;2022-09-29T03:44:59;12.55;;;6.93;;
56043;SDS011;41912;51.022;3.664;2022-09-29T03:47:24;13.40;;;6.57;;
56043;SDS011;41912;51.022;3.664;2022-09-29T03:49:50;12.85;;;6.45;;
56043;SDS011;41912;51.022;3.664;2022-09-29T03:52:16;9.85;;;5.88;;
56043;SDS011;41912;51.022;3.664;2022-09-29T03:54:44;11.20;;;6.85;;
56043;SDS011;41912;51.022;3.664;2022-09-29T03:57:10;10.40;;;6.18;;
56043;SDS011;41912;51.022;3.664;2022-09-29T03:59:36;11.15;;;6.43;;
56043;SDS011;41912;51.022;3.664;2022-09-29T04:02:01;10.85;;;6.80;;
56043;SDS011;41912;51.022;3.664;2022-09-29T04:04:27;11.82;;;6.60;;
56043;SDS011;41912;51.022;3.664;2022-09-29T04:06:53;10.02;;;6.30;;
56043;SDS011;41912;51.022;3.664;2022-09-29T04:09:18;9.57;;;6.63;;
56043;SDS011;41912;51.022;3.664;2022-09-29T04:11:44;13.32;;;6.68;;
56043;SDS011;41912;51.022;3.664;2022-09-29T04:14:10;9.70;;;6.70;;
56043;SDS011;41912;51.022;3.664;2022-09-29T04:16:36;10.93;;;6.80;;
56043;SDS011;41912;51.022;3.664;2022-09-29T04:19:01;12.38;;;6.75;;
56043;SDS011;41912;51.022;3.664;2022-09-29T04:21:27;14.80;;;7.78;;
56043;SDS011;41912;51.022;3.664;2022-09-29T04:23:53;14.00;;;6.90;;
56043;SDS011;41912;51.022;3.664;2022-09-29T04:26:18;10.88;;;6.65;;
56043;SDS011;41912;51.022;3.664;2022-09-29T04:28:47;10.82;;;6.93;;
56043;SDS011;41912;51.022;3.664;2022-09-29T04:31:13;13.20;;;6.82;;
56043;SDS011;41912;51.022;3.664;2022-09-29T04:33:38;16.00;;;7.28;;
56043;SDS011;41912;51.022;3.664;2022-09-29T04:36:05;10.07;;;7.07;;
56043;SDS011;41912;51.022;3.664;2022-09-29T04:38:31;13.52;;;7.20;;
56043;SDS011;41912;51.022;3.664;2022-09-29T04:40:57;11.77;;;7.00;;
56043;SDS011;41912;51.022;3.664;2022-09-29T04:43:23;11.88;;;7.13;;
56043;SDS011;41912;51.022;3.664;2022-09-29T04:45:48;21.88;;;6.60;;
56043;SDS011;41912;51.022;3.664;2022-09-29T04:48:14;10.43;;;7.38;;
56043;SDS011;41912;51.022;3.664;2022-09-29T04:50:40;13.65;;;7.03;;
56043;SDS011;41912;51.022;3.664;2022-09-29T04:53:06;12.38;;;7.10;;
56043;SDS011;41912;51.022;3.664;2022-09-29T04:55:35;14.85;;;6.78;;
56043;SDS011;41912;51.022;3.664;2022-09-29T04:58:02;10.20;;;6.63;;
56043;SDS011;41912;51.022;3.664;2022-09-29T05:00:27;10.90;;;7.28;;
56043;SDS011;41912;51.022;3.664;2022-09-29T05:02:53;11.93;;;6.75;;
56043;SDS011;41912;51.022;3.664;2022-09-29T05:05:18;12.27;;;7.22;;
56043;SDS011;41912;51.022;3.664;2022-09-29T05:07:44;14.13;;;7.10;;
56043;SDS011;41912;51.022;3.664;2022-09-29T05:10:10;9.30;;;6.72;;
56043;SDS011;41912;51.022;3.664;2022-09-29T05:12:35;14.90;;;6.47;;
56043;SDS011;41912;51.022;3.664;2022-09-29T05:15:01;14.40;;;7.10;;
56043;SDS011;41912;51.022;3.664;2022-09-29T05:17:28;9.88;;;6.80;;
56043;SDS011;41912;51.022;3.664;2022-09-29T05:19:57;13.43;;;6.65;;
56043;SDS011;41912;51.022;3.664;2022-09-29T05:22:23;11.00;;;6.68;;
56043;SDS011;41912;51.022;3.664;2022-09-29T05:24:50;13.57;;;7.05;;
56043;SDS011;41912;51.022;3.664;2022-09-29T05:27:16;15.73;;;7.18;;
56043;SDS011;41912;51.022;3.664;2022-09-29T05:29:42;13.45;;;6.53;;
56043;SDS011;41912;51.022;3.664;2022-09-29T05:32:07;13.98;;;6.60;;
56043;SDS011;41912;51.022;3.664;2022-09-29T05:34:33;11.45;;;7.28;;
56043;SDS011;41912;51.022;3.664;2022-09-29T05:36:58;11.55;;;6.65;;
56043;SDS011;41912;51.022;3.664;2022-09-29T05:39:24;10.90;;;6.75;;
56043;SDS011;41912;51.022;3.664;2022-09-29T05:41:50;9.95;;;6.30;;
56043;SDS011;41912;51.022;3.664;2022-09-29T05:44:15;15.57;;;7.22;;
56043;SDS011;41912;51.022;3.664;2022-09-29T05:46:41;11.80;;;6.40;;
56043;SDS011;41912;51.022;3.664;2022-09-29T05:49:07;10.98;;;6.40;;
56043;SDS011;41912;51.022;3.664;2022-09-29T05:51:32;15.10;;;7.45;;
56043;SDS011;41912;51.022;3.664;2022-09-29T05:53:58;14.77;;;6.40;;
56043;SDS011;41912;51.022;3.664;2022-09-29T05:56:25;13.32;;;6.90;;
56043;SDS011;41912;51.022;3.664;2022-09-29T05:58:51;14.25;;;6.32;;
56043;SDS011;41912;51.022;3.664;2022-09-29T06:01:21;10.10;;;6.35;;
56043;SDS011;41912;51.022;3.664;2022-09-29T06:03:48;9.35;;;6.35;;
56043;SDS011;41912;51.022;3.664;2022-09-29T06:06:16;10.07;;;6.38;;
56043;SDS011;41912;51.022;3.664;2022-09-29T06:08:44;9.23;;;6.18;;
56043;SDS011;41912;51.022;3.664;2022-09-29T06:11:12;10.68;;;5.88;;
56043;SDS011;41912;51.022;3.664;2022-09-29T06:13:43;9.07;;;6.57;;
56043;SDS011;41912;51.022;3.664;2022-09-29T06:16:10;14.43;;;7.22;;
56043;SDS011;41912;51.022;3.664;2022-09-29T06:18:36;17.17;;;8.07;;
56043;SDS011;41912;51.022;3.664;2022-09-29T06:21:06;18.25;;;7.55;;
56043;SDS011;41912;51.022;3.664;2022-09-29T06:23:36;15.88;;;7.22;;
56043;SDS011;41912;51.022;3.664;2022-09-29T06:26:04;18.38;;;6.90;;
56043;SDS011;41912;51.022;3.664;2022-09-29T06:28:41;9.80;;;6.32;;
56043;SDS011;41912;51.022;3.664;2022-09-29T06:31:08;11.93;;;7.20;;
56043;SDS011;41912;51.022;3.664;2022-09-29T06:33:36;11.70;;;6.47;;
56043;SDS011;41912;51.022;3.664;2022-09-29T06:36:05;12.55;;;7.28;;
56043;SDS011;41912;51.022;3.664;2022-09-29T06:38:53;12.20;;;6.75;;
56043;SDS011;41912;51.022;3.664;2022-09-29T06:41:19;12.85;;;6.88;;
56043;SDS011;41912;51.022;3.664;2022-09-29T06:43:45;12.15;;;7.65;;
56043;SDS011;41912;51.022;3.664;2022-09-29T06:46:10;17.25;;;7.43;;
56043;SDS011;41912;51.022;3.664;2022-09-29T06:48:36;15.70;;;7.18;;
56043;SDS011;41912;51.022;3.664;2022-09-29T06:51:01;14.10;;;7.50;;
56043;SDS011;41912;51.022;3.664;2022-09-29T06:53:30;10.52;;;7.43;;
56043;SDS011;41912;51.022;3.664;2022-09-29T06:55:56;14.77;;;7.57;;
56043;SDS011;41912;51.022;3.664;2022-09-29T06:58:22;16.40;;;9.48;;
56043;SDS011;41912;51.022;3.664;2022-09-29T07:00:48;12.68;;;7.65;;
56043;SDS011;41912;51.022;3.664;2022-09-29T07:03:13;13.68;;;7.35;;
56043;SDS011;41912;51.022;3.664;2022-09-29T07:05:39;13.80;;;7.95;;
56043;SDS011;41912;51.022;3.664;2022-09-29T07:08:05;22.90;;;8.20;;
56043;SDS011;41912;51.022;3.664;2022-09-29T07:10:30;12.52;;;7.97;;
56043;SDS011;41912;51.022;3.664;2022-09-29T07:12:56;18.88;;;9.30;;
56043;SDS011;41912;51.022;3.664;2022-09-29T07:15:22;18.15;;;9.40;;
56043;SDS011;41912;51.022;3.664;2022-09-29T07:17:55;19.55;;;8.60;;
56043;SDS011;41912;51.022;3.664;2022-09-29T07:20:25;22.50;;;9.63;;
56043;SDS011;41912;51.022;3.664;2022-09-29T07:22:51;18.05;;;9.80;;
56043;SDS011;41912;51.022;3.664;2022-09-29T07:25:17;11.93;;;8.00;;
56043;SDS011;41912;51.022;3.664;2022-09-29T07:27:43;13.65;;;8.38;;
56043;SDS011;41912;51.022;3.664;2022-09-29T07:30:10;13.15;;;8.00;;
56043;SDS011;41912;51.022;3.664;2022-09-29T07:32:36;9.10;;;7.18;;
56043;SDS011;41912;51.022;3.664;2022-09-29T07:35:01;16.20;;;7.97;;
56043;SDS011;41912;51.022;3.664;2022-09-29T07:37:27;12.70;;;8.02;;
56043;SDS011;41912;51.022;3.664;2022-09-29T07:39:54;16.90;;;9.43;;
56043;SDS011;41912;51.022;3.664;2022-09-29T07:42:20;15.45;;;8.10;;
56043;SDS011;41912;51.022;3.664;2022-09-29T07:44:46;17.05;;;8.32;;
56043;SDS011;41912;51.022;3.664;2022-09-29T07:47:11;14.95;;;8.65;;
56043;SDS011;41912;51.022;3.664;2022-09-29T07:49:38;11.45;;;8.80;;
56043;SDS011;41912;51.022;3.664;2022-09-29T07:52:04;12.18;;;8.80;;
56043;SDS011;41912;51.022;3.664;2022-09-29T07:54:30;18.77;;;9.60;;
56043;SDS011;41912;51.022;3.664;2022-09-29T07:56:56;12.10;;;8.30;;
56043;SDS011;41912;51.022;3.664;2022-09-29T07:59:24;14.30;;;8.45;;
56043;SDS011;41912;51.022;3.664;2022-09-29T08:01:50;12.68;;;8.63;;
56043;SDS011;41912;51.022;3.664;2022-09-29T08:04:17;19.98;;;8.20;;
56043;SDS011;41912;51.022;3.664;2022-09-29T08:06:43;14.20;;;7.57;;
56043;SDS011;41912;51.022;3.664;2022-09-29T08:09:08;10.52;;;7.60;;
56043;SDS011;41912;51.022;3.664;2022-09-29T08:11:37;14.00;;;8.55;;
56043;SDS011;41912;51.022;3.664;2022-09-29T08:14:05;13.73;;;7.22;;
56043;SDS011;41912;51.022;3.664;2022-09-29T08:16:31;12.23;;;7.25;;
56043;SDS011;41912;51.022;3.664;2022-09-29T08:18:57;12.80;;;7.40;;
56043;SDS011;41912;51.022;3.664;2022-09-29T08:21:23;11.93;;;7.55;;
56043;SDS011;41912;51.022;3.664;2022-09-29T08:23:49;15.23;;;7.85;;
56043;SDS011;41912;51.022;3.664;2022-09-29T08:26:16;12.07;;;7.30;;
56043;SDS011;41912;51.022;3.664;2022-09-29T08:28:43;12.38;;;6.63;;
56043;SDS011;41912;51.022;3.664;2022-09-29T08:31:13;11.73;;;6.57;;
56043;SDS011;41912;51.022;3.664;2022-09-29T08:33:45;13.73;;;6.97;;
56043;SDS011;41912;51.022;3.664;2022-09-29T08:36:14;8.63;;;6.25;;
56043;SDS011;41912;51.022;3.664;2022-09-29T08:38:43;12.00;;;6.32;;
56043;SDS011;41912;51.022;3.664;2022-09-29T08:41:20;10.95;;;5.97;;
56043;SDS011;41912;51.022;3.664;2022-09-29T08:44:20;9.75;;;5.20;;
56043;SDS011;41912;51.022;3.664;2022-09-29T08:46:53;12.82;;;6.45;;
56043;SDS011;41912;51.022;3.664;2022-09-29T08:49:26;8.88;;;6.07;;
56043;SDS011;41912;51.022;3.664;2022-09-29T08:51:59;9.45;;;5.35;;
56043;SDS011;41912;51.022;3.664;2022-09-29T08:54:34;10.18;;;5.80;;
56043;SDS011;41912;51.022;3.664;2022-09-29T08:57:03;11.45;;;5.40;;
56043;SDS011;41912;51.022;3.664;2022-09-29T08:59:30;12.02;;;5.82;;
56043;SDS011;41912;51.022;3.664;2022-09-29T09:13:12;5.60;;;4.68;;
56043;SDS011;41912;51.022;3.664;2022-09-29T09:16:09;5.57;;;3.90;;
56043;SDS011;41912;51.022;3.664;2022-09-29T09:21:32;7.72;;;4.05;;
56043;SDS011;41912;51.022;3.664;2022-09-29T09:24:10;4.50;;;2.92;;
56043;SDS011;41912;51.022;3.664;2022-09-29T09:26:42;6.07;;;2.95;;
56043;SDS011;41912;51.022;3.664;2022-09-29T09:29:12;3.85;;;2.10;;
56043;SDS011;41912;51.022;3.664;2022-09-29T09:31:45;2.80;;;2.38;;
56043;SDS011;41912;51.022;3.664;2022-09-29T09:36:54;8.70;;;3.13;;
56043;SDS011;41912;51.022;3.664;2022-09-29T09:41:59;4.93;;;2.63;;
56043;SDS011;41912;51.022;3.664;2022-09-29T09:44:35;4.25;;;2.70;;
56043;SDS011;41912;51.022;3.664;2022-09-29T09:47:16;5.20;;;3.05;;
56043;SDS011;41912;51.022;3.664;2022-09-29T09:50:14;4.43;;;2.38;;
56043;SDS011;41912;51.022;3.664;2022-09-29T09:52:52;4.20;;;2.03;;
56043;SDS011;41912;51.022;3.664;2022-09-29T09:55:24;3.35;;;2.53;;
56043;SDS011;41912;51.022;3.664;2022-09-29T10:03:19;3.80;;;2.25;;
56043;SDS011;41912;51.022;3.664;2022-09-29T10:05:45;3.28;;;2.00;;
56043;SDS011;41912;51.022;3.664;2022-09-29T10:11:23;3.60;;;2.20;;
56043;SDS011;41912;51.022;3.664;2022-09-29T10:14:01;4.50;;;1.70;;
56043;SDS011;41912;51.022;3.664;2022-09-29T10:16:54;3.13;;;1.98;;
56043;SDS011;41912;51.022;3.664;2022-09-29T10:22:27;3.67;;;1.80;;
56043;SDS011;41912;51.022;3.664;2022-09-29T10:27:39;2.72;;;1.80;;
56043;SDS011;41912;51.022;3.664;2022-09-29T10:30:49;3.00;;;1.98;;
56043;SDS011;41912;51.022;3.664;2022-09-29T10:32:58;3.95;;;1.70;;
56043;SDS011;41912;51.022;3.664;2022-09-29T10:38:07;4.18;;;1.80;;
56043;SDS011;41912;51.022;3.664;2022-09-29T10:40:53;3.53;;;1.30;;
56043;SDS011;41912;51.022;3.664;2022-09-29T10:43:23;3.42;;;1.48;;
56043;SDS011;41912;51.022;3.664;2022-09-29T10:45:51;6.30;;;1.58;;
56043;SDS011;41912;51.022;3.664;2022-09-29T10:48:23;2.38;;;1.55;;
56043;SDS011;41912;51.022;3.664;2022-09-29T10:50:54;1.73;;;1.10;;
56043;SDS011;41912;51.022;3.664;2022-09-29T10:53:42;2.55;;;1.13;;
56043;SDS011;41912;51.022;3.664;2022-09-29T10:56:17;2.95;;;1.08;;
56043;SDS011;41912;51.022;3.664;2022-09-29T10:58:57;5.13;;;1.27;;
56043;SDS011;41912;51.022;3.664;2022-09-29T11:01:24;3.42;;;1.15;;
56043;SDS011;41912;51.022;3.664;2022-09-29T11:03:58;2.13;;;0.90;;
56043;SDS011;41912;51.022;3.664;2022-09-29T11:06:37;1.42;;;1.02;;
56043;SDS011;41912;51.022;3.664;2022-09-29T11:11:38;1.25;;;0.90;;
56043;SDS011;41912;51.022;3.664;2022-09-29T11:14:22;4.30;;;1.17;;
56043;SDS011;41912;51.022;3.664;2022-09-29T11:16:57;2.08;;;0.60;;
56043;SDS011;41912;51.022;3.664;2022-09-29T11:19:24;0.65;;;0.52;;
56043;SDS011;41912;51.022;3.664;2022-09-29T11:25:03;2.78;;;0.98;;
56043;SDS011;41912;51.022;3.664;2022-09-29T11:27:44;2.42;;;0.40;;
56043;SDS011;41912;51.022;3.664;2022-09-29T11:30:23;1.50;;;0.40;;
56043;SDS011;41912;51.022;3.664;2022-09-29T11:35:44;3.97;;;0.20;;
56043;SDS011;41912;51.022;3.664;2022-09-29T11:49:47;0.22;;;0.22;;
56043;SDS011;41912;51.022;3.664;2022-09-29T11:52:38;1.27;;;0.70;;
56043;SDS011;41912;51.022;3.664;2022-09-29T11:58:03;1.67;;;0.30;;
56043;SDS011;41912;51.022;3.664;2022-09-29T12:03:31;0.35;;;0.20;;
56043;SDS011;41912;51.022;3.664;2022-09-29T12:14:20;0.60;;;0.20;;
56043;SDS011;41912;51.022;3.664;2022-09-29T12:16:58;0.30;;;0.10;;
56043;SDS011;41912;51.022;3.664;2022-09-29T12:19:31;0.65;;;0.20;;
56043;SDS011;41912;51.022;3.664;2022-09-29T12:22:01;0.93;;;0.30;;
56043;SDS011;41912;51.022;3.664;2022-09-29T12:24:37;1.42;;;0.20;;
56043;SDS011;41912;51.022;3.664;2022-09-29T12:30:00;1.48;;;0.22;;
56043;SDS011;41912;51.022;3.664;2022-09-29T12:38:11;3.53;;;0.50;;
56043;SDS011;41912;51.022;3.664;2022-09-29T12:43:42;4.50;;;0.40;;
56043;SDS011;41912;51.022;3.664;2022-09-29T12:46:12;0.85;;;0.45;;
56043;SDS011;41912;51.022;3.664;2022-09-29T12:51:43;1.38;;;0.38;;
56043;SDS011;41912;51.022;3.664;2022-09-29T12:54:16;1.58;;;0.50;;
56043;SDS011;41912;51.022;3.664;2022-09-29T12:56:46;1.02;;;0.52;;
56043;SDS011;41912;51.022;3.664;2022-09-29T12:59:33;2.22;;;0.50;;
56043;SDS011;41912;51.022;3.664;2022-09-29T13:02:41;1.50;;;0.98;;
56043;SDS011;41912;51.022;3.664;2022-09-29T13:08:08;1.10;;;0.65;;
56043;SDS011;41912;51.022;3.664;2022-09-29T13:14:19;1.10;;;0.70;;
56043;SDS011;41912;51.022;3.664;2022-09-29T13:25:35;1.17;;;0.70;;
56043;SDS011;41912;51.022;3.664;2022-09-29T13:28:29;1.30;;;0.50;;
56043;SDS011;41912;51.022;3.664;2022-09-29T13:30:59;1.13;;;0.40;;
56043;SDS011;41912;51.022;3.664;2022-09-29T13:33:28;1.48;;;0.50;;
56043;SDS011;41912;51.022;3.664;2022-09-29T13:35:54;2.70;;;0.50;;
56043;SDS011;41912;51.022;3.664;2022-09-29T13:38:22;1.33;;;0.50;;
56043;SDS011;41912;51.022;3.664;2022-09-29T13:41:09;0.93;;;0.70;;
56043;SDS011;41912;51.022;3.664;2022-09-29T13:49:41;1.20;;;0.47;;
56043;SDS011;41912;51.022;3.664;2022-09-29T14:07:50;2.75;;;0.60;;
56043;SDS011;41912;51.022;3.664;2022-09-29T14:10:38;1.70;;;0.32;;
56043;SDS011;41912;51.022;3.664;2022-09-29T14:13:25;2.22;;;0.40;;
56043;SDS011;41912;51.022;3.664;2022-09-29T14:18:46;3.05;;;0.60;;
56043;SDS011;41912;51.022;3.664;2022-09-29T14:32:52;1.80;;;0.50;;
56043;SDS011;41912;51.022;3.664;2022-09-29T14:40:53;1.75;;;0.40;;
56043;SDS011;41912;51.022;3.664;2022-09-29T15:04:08;2.15;;;0.30;;
56043;SDS011;41912;51.022;3.664;2022-09-29T15:06:48;2.80;;;0.50;;
56043;SDS011;41912;51.022;3.664;2022-09-29T15:09:22;3.78;;;0.60;;
56043;SDS011;41912;51.022;3.664;2022-09-29T15:11:50;1.33;;;0.47;;
56043;SDS011;41912;51.022;3.664;2022-09-29T15:16:47;6.93;;;0.98;;
56043;SDS011;41912;51.022;3.664;2022-09-29T15:21:49;1.52;;;0.43;;
56043;SDS011;41912;51.022;3.664;2022-09-29T15:24:30;3.58;;;0.60;;
56043;SDS011;41912;51.022;3.664;2022-09-29T15:27:05;2.67;;;0.47;;
56043;SDS011;41912;51.022;3.664;2022-09-29T15:29:37;0.85;;;0.57;;
56043;SDS011;41912;51.022;3.664;2022-09-29T15:32:03;2.85;;;0.85;;
56043;SDS011;41912;51.022;3.664;2022-09-29T15:34:29;2.90;;;0.80;;
56043;SDS011;41912;51.022;3.664;2022-09-29T15:36:55;4.18;;;0.65;;
56043;SDS011;41912;51.022;3.664;2022-09-29T15:42:09;3.58;;;0.98;;
56043;SDS011;41912;51.022;3.664;2022-09-29T15:44:40;1.35;;;1.00;;
56043;SDS011;41912;51.022;3.664;2022-09-29T15:47:28;2.13;;;1.13;;
56043;SDS011;41912;51.022;3.664;2022-09-29T15:49:59;3.10;;;1.45;;
56043;SDS011;41912;51.022;3.664;2022-09-29T15:52:48;8.32;;;1.30;;
56043;SDS011;41912;51.022;3.664;2022-09-29T15:55:15;6.05;;;1.50;;
56043;SDS011;41912;51.022;3.664;2022-09-29T15:57:47;2.78;;;1.10;;
56043;SDS011;41912;51.022;3.664;2022-09-29T16:02:57;3.43;;;2.00;;
56043;SDS011;41912;51.022;3.664;2022-09-29T16:08:23;6.97;;;2.00;;
56043;SDS011;41912;51.022;3.664;2022-09-29T16:10:56;8.77;;;2.20;;
56043;SDS011;41912;51.022;3.664;2022-09-29T16:13:26;3.05;;;1.30;;
56043;SDS011;41912;51.022;3.664;2022-09-29T16:15:57;5.72;;;1.45;;
56043;SDS011;41912;51.022;3.664;2022-09-29T16:20:57;8.57;;;1.83;;
56043;SDS011;41912;51.022;3.664;2022-09-29T16:26:19;6.22;;;1.90;;
56043;SDS011;41912;51.022;3.664;2022-09-29T16:29:02;4.05;;;2.20;;
56043;SDS011;41912;51.022;3.664;2022-09-29T16:31:31;5.15;;;1.98;;
56043;SDS011;41912;51.022;3.664;2022-09-29T16:33:58;9.15;;;2.50;;
56043;SDS011;41912;51.022;3.664;2022-09-29T16:36:25;6.00;;;2.40;;
56043;SDS011;41912;51.022;3.664;2022-09-29T16:39:00;7.32;;;2.30;;
56043;SDS011;41912;51.022;3.664;2022-09-29T16:41:37;7.07;;;2.33;;
56043;SDS011;41912;51.022;3.664;2022-09-29T16:49:25;5.90;;;2.60;;
56043;SDS011;41912;51.022;3.664;2022-09-29T16:51:52;11.68;;;2.53;;
56043;SDS011;41912;51.022;3.664;2022-09-29T16:54:22;14.98;;;2.88;;
56043;SDS011;41912;51.022;3.664;2022-09-29T16:59:34;6.50;;;2.30;;
56043;SDS011;41912;51.022;3.664;2022-09-29T17:02:00;8.27;;;3.25;;
56043;SDS011;41912;51.022;3.664;2022-09-29T17:04:26;8.68;;;2.40;;
56043;SDS011;41912;51.022;3.664;2022-09-29T17:06:51;10.70;;;2.22;;
56043;SDS011;41912;51.022;3.664;2022-09-29T17:09:18;2.72;;;2.33;;
56043;SDS011;41912;51.022;3.664;2022-09-29T17:11:51;6.32;;;2.15;;
56043;SDS011;41912;51.022;3.664;2022-09-29T17:14:16;10.50;;;2.40;;
56043;SDS011;41912;51.022;3.664;2022-09-29T17:16:42;3.30;;;2.00;;
56043;SDS011;41912;51.022;3.664;2022-09-29T17:19:09;11.70;;;2.47;;
56043;SDS011;41912;51.022;3.664;2022-09-29T17:21:39;9.23;;;2.70;;
56043;SDS011;41912;51.022;3.664;2022-09-29T17:24:04;5.05;;;2.60;;
56043;SDS011;41912;51.022;3.664;2022-09-29T17:26:37;5.68;;;2.42;;
56043;SDS011;41912;51.022;3.664;2022-09-29T17:29:24;7.97;;;3.00;;
56043;SDS011;41912;51.022;3.664;2022-09-29T17:31:49;5.60;;;2.17;;
56043;SDS011;41912;51.022;3.664;2022-09-29T17:34:15;3.25;;;2.30;;
56043;SDS011;41912;51.022;3.664;2022-09-29T17:36:41;9.25;;;2.63;;
56043;SDS011;41912;51.022;3.664;2022-09-29T17:39:07;3.90;;;2.38;;
56043;SDS011;41912;51.022;3.664;2022-09-29T17:41:33;4.32;;;1.98;;
56043;SDS011;41912;51.022;3.664;2022-09-29T17:43:59;7.63;;;2.63;;
56043;SDS011;41912;51.022;3.664;2022-09-29T17:46:35;4.75;;;2.17;;
56043;SDS011;41912;51.022;3.664;2022-09-29T17:49:02;3.90;;;2.42;;
56043;SDS011;41912;51.022;3.664;2022-09-29T17:51:28;4.63;;;2.42;;
56043;SDS011;41912;51.022;3.664;2022-09-29T17:53:53;8.40;;;2.53;;
56043;SDS011;41912;51.022;3.664;2022-09-29T17:56:20;5.47;;;2.58;;
56043;SDS011;41912;51.022;3.664;2022-09-29T17:58:49;3.85;;;2.58;;
56043;SDS011;41912;51.022;3.664;2022-09-29T18:01:17;5.75;;;2.90;;
56043;SDS011;41912;51.022;3.664;2022-09-29T18:03:45;5.45;;;2.17;;
56043;SDS011;41912;51.022;3.664;2022-09-29T18:06:18;13.13;;;2.88;;
56043;SDS011;41912;51.022;3.664;2022-09-29T18:08:46;5.25;;;2.47;;
56043;SDS011;41912;51.022;3.664;2022-09-29T18:11:14;4.55;;;2.65;;
56043;SDS011;41912;51.022;3.664;2022-09-29T18:13:41;3.20;;;2.33;;
56043;SDS011;41912;51.022;3.664;2022-09-29T18:16:09;6.53;;;2.65;;
56043;SDS011;41912;51.022;3.664;2022-09-29T18:18:39;9.10;;;3.40;;
56043;SDS011;41912;51.022;3.664;2022-09-29T18:21:05;4.15;;;2.78;;
56043;SDS011;41912;51.022;3.664;2022-09-29T18:23:31;5.63;;;2.72;;
56043;SDS011;41912;51.022;3.664;2022-09-29T18:25:58;5.07;;;3.08;;
56043;SDS011;41912;51.022;3.664;2022-09-29T18:28:25;6.85;;;2.67;;
56043;SDS011;41912;51.022;3.664;2022-09-29T18:30:53;6.25;;;3.10;;
56043;SDS011;41912;51.022;3.664;2022-09-29T18:33:25;6.75;;;3.30;;
56043;SDS011;41912;51.022;3.664;2022-09-29T18:35:52;6.40;;;2.45;;
56043;SDS011;41912;51.022;3.664;2022-09-29T18:38:18;10.43;;;2.67;;